Aviation Digital Data Service (ADDS)

Output produced by METARs form (0412 UTC 25 October 2014)
found at http://www.aviationweather.gov/adds/metars/
 
KGED 250354Z AUTO 28004KT 10SM CLR 12/04 A2992 RMK AO2 SLP130 T01220044 $